sensor_id;sensor_type;location;lat;lon;timestamp;P1;durP1;ratioP1;P2;durP2;ratioP2
41167;SDS011;26906;45.658;9.272;2022-11-20T06:16:21;6.22;;;4.80;;
41167;SDS011;26906;45.658;9.272;2022-11-20T06:18:47;7.05;;;4.72;;
41167;SDS011;26906;45.658;9.272;2022-11-20T06:21:15;15.23;;;6.30;;
41167;SDS011;26906;45.658;9.272;2022-11-20T06:23:43;9.13;;;5.35;;
41167;SDS011;26906;45.658;9.272;2022-11-20T06:26:10;9.07;;;5.15;;
41167;SDS011;26906;45.658;9.272;2022-11-20T06:28:37;7.90;;;5.13;;
41167;SDS011;26906;45.658;9.272;2022-11-20T06:31:04;6.57;;;4.68;;
41167;SDS011;26906;45.658;9.272;2022-11-20T06:33:31;4.95;;;4.28;;
41167;SDS011;26906;45.658;9.272;2022-11-20T06:35:58;8.93;;;4.70;;
41167;SDS011;26906;45.658;9.272;2022-11-20T06:38:25;7.25;;;4.82;;
41167;SDS011;26906;45.658;9.272;2022-11-20T06:40:51;6.38;;;4.35;;
41167;SDS011;26906;45.658;9.272;2022-11-20T06:43:20;5.88;;;4.28;;
41167;SDS011;26906;45.658;9.272;2022-11-20T06:45:46;7.18;;;4.50;;
41167;SDS011;26906;45.658;9.272;2022-11-20T06:48:18;6.47;;;4.85;;
41167;SDS011;26906;45.658;9.272;2022-11-20T06:50:45;6.13;;;4.50;;
41167;SDS011;26906;45.658;9.272;2022-11-20T06:53:11;5.63;;;4.25;;
41167;SDS011;26906;45.658;9.272;2022-11-20T06:55:36;5.93;;;4.35;;
41167;SDS011;26906;45.658;9.272;2022-11-20T06:58:06;6.78;;;4.53;;
41167;SDS011;26906;45.658;9.272;2022-11-20T07:00:32;6.10;;;4.55;;
41167;SDS011;26906;45.658;9.272;2022-11-20T07:03:04;5.45;;;4.63;;
41167;SDS011;26906;45.658;9.272;2022-11-20T07:05:36;7.15;;;4.13;;
41167;SDS011;26906;45.658;9.272;2022-11-20T07:08:03;7.15;;;4.15;;
41167;SDS011;26906;45.658;9.272;2022-11-20T07:10:30;4.07;;;3.60;;
41167;SDS011;26906;45.658;9.272;2022-11-20T07:12:56;6.07;;;3.95;;
41167;SDS011;26906;45.658;9.272;2022-11-20T07:15:22;6.70;;;4.20;;
41167;SDS011;26906;45.658;9.272;2022-11-20T07:17:52;6.45;;;4.80;;
41167;SDS011;26906;45.658;9.272;2022-11-20T07:20:18;6.55;;;4.50;;
41167;SDS011;26906;45.658;9.272;2022-11-20T07:22:43;7.80;;;4.85;;
41167;SDS011;26906;45.658;9.272;2022-11-20T07:25:09;6.00;;;4.00;;
41167;SDS011;26906;45.658;9.272;2022-11-20T07:27:35;6.85;;;3.95;;
41167;SDS011;26906;45.658;9.272;2022-11-20T07:30:02;8.95;;;4.43;;
41167;SDS011;26906;45.658;9.272;2022-11-20T07:32:28;7.43;;;4.30;;
41167;SDS011;26906;45.658;9.272;2022-11-20T07:34:54;6.55;;;4.28;;
41167;SDS011;26906;45.658;9.272;2022-11-20T07:37:20;6.57;;;4.05;;
41167;SDS011;26906;45.658;9.272;2022-11-20T07:39:46;7.15;;;4.40;;
41167;SDS011;26906;45.658;9.272;2022-11-20T07:42:12;9.05;;;5.78;;
41167;SDS011;26906;45.658;9.272;2022-11-20T07:44:38;7.07;;;5.45;;
41167;SDS011;26906;45.658;9.272;2022-11-20T07:47:04;6.60;;;5.00;;
41167;SDS011;26906;45.658;9.272;2022-11-20T07:49:30;6.15;;;4.53;;
41167;SDS011;26906;45.658;9.272;2022-11-20T07:51:55;5.45;;;4.50;;
41167;SDS011;26906;45.658;9.272;2022-11-20T07:54:21;6.25;;;4.28;;
41167;SDS011;26906;45.658;9.272;2022-11-20T07:56:48;8.65;;;5.03;;
41167;SDS011;26906;45.658;9.272;2022-11-20T07:59:14;7.13;;;5.00;;
41167;SDS011;26906;45.658;9.272;2022-11-20T08:01:41;9.77;;;4.93;;
41167;SDS011;26906;45.658;9.272;2022-11-20T08:04:07;7.80;;;5.10;;
41167;SDS011;26906;45.658;9.272;2022-11-20T08:06:35;8.90;;;5.72;;
41167;SDS011;26906;45.658;9.272;2022-11-20T08:09:01;8.60;;;6.63;;
41167;SDS011;26906;45.658;9.272;2022-11-20T08:11:27;9.45;;;6.50;;
41167;SDS011;26906;45.658;9.272;2022-11-20T08:14:11;6.95;;;5.70;;
41167;SDS011;26906;45.658;9.272;2022-11-20T08:16:38;8.32;;;6.13;;
41167;SDS011;26906;45.658;9.272;2022-11-20T08:19:04;7.30;;;5.78;;
41167;SDS011;26906;45.658;9.272;2022-11-20T08:21:33;9.30;;;6.10;;
41167;SDS011;26906;45.658;9.272;2022-11-20T08:23:58;7.05;;;6.03;;
41167;SDS011;26906;45.658;9.272;2022-11-20T08:26:24;8.43;;;5.57;;
41167;SDS011;26906;45.658;9.272;2022-11-20T08:28:54;8.02;;;6.00;;
41167;SDS011;26906;45.658;9.272;2022-11-20T08:31:22;7.35;;;5.53;;
41167;SDS011;26906;45.658;9.272;2022-11-20T08:33:48;6.93;;;5.07;;
41167;SDS011;26906;45.658;9.272;2022-11-20T08:36:15;10.95;;;5.07;;
41167;SDS011;26906;45.658;9.272;2022-11-20T08:38:41;10.80;;;4.97;;
41167;SDS011;26906;45.658;9.272;2022-11-20T08:41:07;6.90;;;4.05;;
41167;SDS011;26906;45.658;9.272;2022-11-20T08:46:19;7.00;;;4.38;;
41167;SDS011;26906;45.658;9.272;2022-11-20T08:48:44;6.03;;;4.40;;
41167;SDS011;26906;45.658;9.272;2022-11-20T08:51:10;6.32;;;4.03;;
41167;SDS011;26906;45.658;9.272;2022-11-20T08:53:37;5.03;;;3.95;;
41167;SDS011;26906;45.658;9.272;2022-11-20T08:56:04;5.32;;;4.13;;
41167;SDS011;26906;45.658;9.272;2022-11-20T08:58:30;10.75;;;6.03;;
41167;SDS011;26906;45.658;9.272;2022-11-20T09:00:55;8.20;;;4.53;;
41167;SDS011;26906;45.658;9.272;2022-11-20T09:03:21;7.00;;;3.70;;
41167;SDS011;26906;45.658;9.272;2022-11-20T09:05:48;4.88;;;3.58;;
41167;SDS011;26906;45.658;9.272;2022-11-20T09:08:13;5.15;;;3.08;;
41167;SDS011;26906;45.658;9.272;2022-11-20T09:10:39;4.47;;;3.40;;
41167;SDS011;26906;45.658;9.272;2022-11-20T09:13:05;4.90;;;3.20;;
41167;SDS011;26906;45.658;9.272;2022-11-20T09:15:31;5.95;;;3.85;;
41167;SDS011;26906;45.658;9.272;2022-11-20T09:18:01;4.78;;;3.40;;
41167;SDS011;26906;45.658;9.272;2022-11-20T09:20:29;6.75;;;3.85;;
41167;SDS011;26906;45.658;9.272;2022-11-20T09:22:55;5.70;;;3.08;;
41167;SDS011;26906;45.658;9.272;2022-11-20T09:25:22;6.45;;;2.95;;
41167;SDS011;26906;45.658;9.272;2022-11-20T09:27:47;6.18;;;3.55;;
41167;SDS011;26906;45.658;9.272;2022-11-20T09:30:19;4.40;;;3.10;;
41167;SDS011;26906;45.658;9.272;2022-11-20T09:32:45;5.93;;;3.30;;
41167;SDS011;26906;45.658;9.272;2022-11-20T09:35:10;6.82;;;3.47;;
41167;SDS011;26906;45.658;9.272;2022-11-20T09:37:36;3.63;;;3.20;;
41167;SDS011;26906;45.658;9.272;2022-11-20T09:40:03;5.15;;;3.40;;
41167;SDS011;26906;45.658;9.272;2022-11-20T09:45:16;3.93;;;3.23;;
41167;SDS011;26906;45.658;9.272;2022-11-20T09:47:59;4.95;;;3.17;;
41167;SDS011;26906;45.658;9.272;2022-11-20T09:50:56;6.32;;;4.95;;
41167;SDS011;26906;45.658;9.272;2022-11-20T09:56:13;3.90;;;3.00;;
41167;SDS011;26906;45.658;9.272;2022-11-20T09:58:45;6.07;;;3.17;;
41167;SDS011;26906;45.658;9.272;2022-11-20T10:01:15;5.60;;;3.15;;
41167;SDS011;26906;45.658;9.272;2022-11-20T10:09:53;5.25;;;3.88;;
41167;SDS011;26906;45.658;9.272;2022-11-20T10:12:38;4.45;;;3.75;;
41167;SDS011;26906;45.658;9.272;2022-11-20T10:18:04;5.22;;;3.75;;
41167;SDS011;26906;45.658;9.272;2022-11-20T10:31:50;4.65;;;3.80;;
41167;SDS011;26906;45.658;9.272;2022-11-20T10:37:10;4.30;;;3.30;;
41167;SDS011;26906;45.658;9.272;2022-11-20T10:39:43;4.35;;;3.17;;
41167;SDS011;26906;45.658;9.272;2022-11-20T10:42:26;4.75;;;3.45;;
41167;SDS011;26906;45.658;9.272;2022-11-20T10:47:49;6.13;;;4.75;;
41167;SDS011;26906;45.658;9.272;2022-11-20T10:50:20;4.05;;;3.33;;
41167;SDS011;26906;45.658;9.272;2022-11-20T10:53:01;5.05;;;4.25;;
41167;SDS011;26906;45.658;9.272;2022-11-20T10:58:35;7.45;;;5.60;;
41167;SDS011;26906;45.658;9.272;2022-11-20T11:01:16;4.70;;;3.50;;
41167;SDS011;26906;45.658;9.272;2022-11-20T11:03:46;4.50;;;3.60;;
41167;SDS011;26906;45.658;9.272;2022-11-20T11:11:31;6.63;;;5.03;;
41167;SDS011;26906;45.658;9.272;2022-11-20T11:14:09;5.45;;;3.50;;
41167;SDS011;26906;45.658;9.272;2022-11-20T11:19:43;6.55;;;3.65;;
41167;SDS011;26906;45.658;9.272;2022-11-20T11:22:10;4.93;;;3.60;;
41167;SDS011;26906;45.658;9.272;2022-11-20T11:24:51;7.43;;;4.28;;
41167;SDS011;26906;45.658;9.272;2022-11-20T11:27:17;8.68;;;4.07;;
41167;SDS011;26906;45.658;9.272;2022-11-20T11:29:44;6.15;;;3.65;;
41167;SDS011;26906;45.658;9.272;2022-11-20T11:32:14;5.90;;;3.95;;
41167;SDS011;26906;45.658;9.272;2022-11-20T11:34:58;4.03;;;3.10;;
41167;SDS011;26906;45.658;9.272;2022-11-20T11:37:35;5.03;;;2.92;;
41167;SDS011;26906;45.658;9.272;2022-11-20T11:40:03;4.60;;;3.30;;
41167;SDS011;26906;45.658;9.272;2022-11-20T11:42:31;4.97;;;3.72;;
41167;SDS011;26906;45.658;9.272;2022-11-20T11:44:58;4.45;;;3.92;;
41167;SDS011;26906;45.658;9.272;2022-11-20T12:00:41;5.43;;;3.78;;
41167;SDS011;26906;45.658;9.272;2022-11-20T12:03:21;7.95;;;4.00;;
41167;SDS011;26906;45.658;9.272;2022-11-20T12:06:01;4.10;;;3.70;;
41167;SDS011;26906;45.658;9.272;2022-11-20T12:08:48;5.35;;;3.88;;
41167;SDS011;26906;45.658;9.272;2022-11-20T12:14:18;5.47;;;3.67;;
41167;SDS011;26906;45.658;9.272;2022-11-20T12:16:51;6.45;;;3.47;;
41167;SDS011;26906;45.658;9.272;2022-11-20T12:19:18;4.78;;;3.42;;
41167;SDS011;26906;45.658;9.272;2022-11-20T12:30:20;4.15;;;2.97;;
41167;SDS011;26906;45.658;9.272;2022-11-20T12:33:03;3.88;;;2.88;;
41167;SDS011;26906;45.658;9.272;2022-11-20T12:35:57;6.20;;;3.17;;
41167;SDS011;26906;45.658;9.272;2022-11-20T12:44:29;5.25;;;3.95;;
41167;SDS011;26906;45.658;9.272;2022-11-20T12:47:23;7.32;;;4.10;;
41167;SDS011;26906;45.658;9.272;2022-11-20T12:50:30;5.53;;;3.72;;
41167;SDS011;26906;45.658;9.272;2022-11-20T12:52:52;5.18;;;3.72;;
41167;SDS011;26906;45.658;9.272;2022-11-20T12:55:24;5.88;;;4.80;;
41167;SDS011;26906;45.658;9.272;2022-11-20T13:07:12;6.50;;;5.00;;
41167;SDS011;26906;45.658;9.272;2022-11-20T13:09:46;5.72;;;4.90;;
41167;SDS011;26906;45.658;9.272;2022-11-20T13:20:20;7.22;;;5.88;;
41167;SDS011;26906;45.658;9.272;2022-11-20T13:25:26;7.45;;;5.97;;
41167;SDS011;26906;45.658;9.272;2022-11-20T13:27:54;8.30;;;5.95;;
41167;SDS011;26906;45.658;9.272;2022-11-20T13:30:22;7.70;;;5.65;;
41167;SDS011;26906;45.658;9.272;2022-11-20T13:32:53;6.63;;;5.88;;
41167;SDS011;26906;45.658;9.272;2022-11-20T13:35:32;11.00;;;5.80;;
41167;SDS011;26906;45.658;9.272;2022-11-20T13:38:09;6.68;;;5.47;;
41167;SDS011;26906;45.658;9.272;2022-11-20T13:40:37;6.55;;;5.30;;
41167;SDS011;26906;45.658;9.272;2022-11-20T13:45:53;9.95;;;5.47;;
41167;SDS011;26906;45.658;9.272;2022-11-20T13:48:45;7.05;;;5.57;;
41167;SDS011;26906;45.658;9.272;2022-11-20T13:51:15;7.85;;;5.90;;
41167;SDS011;26906;45.658;9.272;2022-11-20T13:59:47;8.48;;;6.22;;
41167;SDS011;26906;45.658;9.272;2022-11-20T14:02:36;8.32;;;5.70;;
41167;SDS011;26906;45.658;9.272;2022-11-20T14:05:05;9.18;;;6.68;;
41167;SDS011;26906;45.658;9.272;2022-11-20T14:07:39;7.00;;;5.68;;
41167;SDS011;26906;45.658;9.272;2022-11-20T14:10:18;8.80;;;5.93;;
41167;SDS011;26906;45.658;9.272;2022-11-20T14:13:37;9.30;;;6.40;;
41167;SDS011;26906;45.658;9.272;2022-11-20T14:15:57;7.60;;;5.95;;
41167;SDS011;26906;45.658;9.272;2022-11-20T14:18:25;6.28;;;5.38;;
41167;SDS011;26906;45.658;9.272;2022-11-20T14:20:51;7.22;;;5.90;;
41167;SDS011;26906;45.658;9.272;2022-11-20T14:23:25;8.93;;;6.10;;
41167;SDS011;26906;45.658;9.272;2022-11-20T14:25:51;7.43;;;5.75;;
41167;SDS011;26906;45.658;9.272;2022-11-20T14:28:20;9.18;;;6.28;;
41167;SDS011;26906;45.658;9.272;2022-11-20T14:30:51;8.20;;;6.10;;
41167;SDS011;26906;45.658;9.272;2022-11-20T14:33:17;8.23;;;6.32;;
41167;SDS011;26906;45.658;9.272;2022-11-20T14:35:50;7.25;;;5.82;;
41167;SDS011;26906;45.658;9.272;2022-11-20T14:38:29;8.25;;;5.75;;
41167;SDS011;26906;45.658;9.272;2022-11-20T14:41:07;8.07;;;6.32;;
41167;SDS011;26906;45.658;9.272;2022-11-20T14:43:34;8.73;;;6.18;;
41167;SDS011;26906;45.658;9.272;2022-11-20T14:46:05;8.15;;;5.95;;
41167;SDS011;26906;45.658;9.272;2022-11-20T14:48:35;8.52;;;6.40;;
41167;SDS011;26906;45.658;9.272;2022-11-20T14:51:05;11.52;;;5.97;;
41167;SDS011;26906;45.658;9.272;2022-11-20T14:53:39;7.95;;;5.53;;
41167;SDS011;26906;45.658;9.272;2022-11-20T14:56:05;7.72;;;5.60;;
41167;SDS011;26906;45.658;9.272;2022-11-20T14:58:34;9.15;;;5.78;;
41167;SDS011;26906;45.658;9.272;2022-11-20T15:01:04;8.73;;;5.88;;
41167;SDS011;26906;45.658;9.272;2022-11-20T15:03:32;11.88;;;6.18;;
41167;SDS011;26906;45.658;9.272;2022-11-20T15:06:02;9.15;;;6.03;;
41167;SDS011;26906;45.658;9.272;2022-11-20T15:08:30;7.75;;;5.55;;
41167;SDS011;26906;45.658;9.272;2022-11-20T15:10:56;8.48;;;6.07;;
41167;SDS011;26906;45.658;9.272;2022-11-20T15:13:32;8.38;;;5.90;;
41167;SDS011;26906;45.658;9.272;2022-11-20T15:16:08;8.48;;;6.72;;
41167;SDS011;26906;45.658;9.272;2022-11-20T15:18:42;11.10;;;6.18;;
41167;SDS011;26906;45.658;9.272;2022-11-20T15:21:12;10.75;;;7.22;;
41167;SDS011;26906;45.658;9.272;2022-11-20T15:23:39;9.05;;;6.00;;
41167;SDS011;26906;45.658;9.272;2022-11-20T15:26:06;10.45;;;6.32;;
41167;SDS011;26906;45.658;9.272;2022-11-20T15:31:05;8.90;;;6.20;;
41167;SDS011;26906;45.658;9.272;2022-11-20T15:33:32;8.35;;;6.35;;
41167;SDS011;26906;45.658;9.272;2022-11-20T15:35:59;19.58;;;12.75;;
41167;SDS011;26906;45.658;9.272;2022-11-20T15:38:25;12.25;;;9.38;;
41167;SDS011;26906;45.658;9.272;2022-11-20T15:40:51;8.75;;;6.43;;
41167;SDS011;26906;45.658;9.272;2022-11-20T15:43:17;8.55;;;6.53;;
41167;SDS011;26906;45.658;9.272;2022-11-20T15:46:02;8.60;;;7.32;;
41167;SDS011;26906;45.658;9.272;2022-11-20T15:48:31;14.40;;;7.53;;
41167;SDS011;26906;45.658;9.272;2022-11-20T15:53:39;7.70;;;6.57;;
41167;SDS011;26906;45.658;9.272;2022-11-20T15:56:11;10.30;;;6.65;;
41167;SDS011;26906;45.658;9.272;2022-11-20T15:58:41;7.70;;;6.40;;
41167;SDS011;26906;45.658;9.272;2022-11-20T16:01:10;13.68;;;6.38;;
41167;SDS011;26906;45.658;9.272;2022-11-20T16:03:39;12.55;;;7.13;;
41167;SDS011;26906;45.658;9.272;2022-11-20T16:06:05;9.32;;;8.05;;
41167;SDS011;26906;45.658;9.272;2022-11-20T16:08:31;11.95;;;8.25;;
41167;SDS011;26906;45.658;9.272;2022-11-20T16:10:57;10.68;;;7.32;;
41167;SDS011;26906;45.658;9.272;2022-11-20T16:13:22;10.82;;;8.00;;
41167;SDS011;26906;45.658;9.272;2022-11-20T16:18:35;11.18;;;7.70;;
41167;SDS011;26906;45.658;9.272;2022-11-20T16:21:01;12.30;;;8.63;;
41167;SDS011;26906;45.658;9.272;2022-11-20T16:23:27;16.02;;;9.55;;
41167;SDS011;26906;45.658;9.272;2022-11-20T16:25:53;16.95;;;10.20;;
41167;SDS011;26906;45.658;9.272;2022-11-20T16:28:19;23.77;;;18.67;;
41167;SDS011;26906;45.658;9.272;2022-11-20T16:30:49;35.80;;;25.58;;
41167;SDS011;26906;45.658;9.272;2022-11-20T16:33:16;42.20;;;31.33;;
41167;SDS011;26906;45.658;9.272;2022-11-20T16:35:42;20.02;;;16.13;;
41167;SDS011;26906;45.658;9.272;2022-11-20T16:38:08;16.60;;;12.55;;
41167;SDS011;26906;45.658;9.272;2022-11-20T16:40:34;15.63;;;10.52;;
41167;SDS011;26906;45.658;9.272;2022-11-20T16:43:07;12.32;;;9.60;;
41167;SDS011;26906;45.658;9.272;2022-11-20T16:45:39;11.32;;;8.52;;
41167;SDS011;26906;45.658;9.272;2022-11-20T16:48:06;12.43;;;8.93;;
41167;SDS011;26906;45.658;9.272;2022-11-20T16:50:31;14.30;;;9.20;;
41167;SDS011;26906;45.658;9.272;2022-11-20T16:52:57;15.10;;;10.00;;
41167;SDS011;26906;45.658;9.272;2022-11-20T16:55:22;11.43;;;9.00;;
41167;SDS011;26906;45.658;9.272;2022-11-20T16:57:48;18.67;;;11.05;;
41167;SDS011;26906;45.658;9.272;2022-11-20T17:00:14;19.00;;;13.05;;
41167;SDS011;26906;45.658;9.272;2022-11-20T17:02:40;20.00;;;15.05;;
41167;SDS011;26906;45.658;9.272;2022-11-20T17:05:05;16.95;;;12.82;;
41167;SDS011;26906;45.658;9.272;2022-11-20T17:07:31;21.45;;;13.55;;
41167;SDS011;26906;45.658;9.272;2022-11-20T17:10:01;16.55;;;12.77;;
41167;SDS011;26906;45.658;9.272;2022-11-20T17:12:27;16.65;;;11.82;;
41167;SDS011;26906;45.658;9.272;2022-11-20T17:14:53;17.33;;;12.30;;
41167;SDS011;26906;45.658;9.272;2022-11-20T17:17:18;15.52;;;11.82;;
41167;SDS011;26906;45.658;9.272;2022-11-20T17:19:44;16.63;;;12.48;;
41167;SDS011;26906;45.658;9.272;2022-11-20T17:22:10;18.02;;;13.27;;
41167;SDS011;26906;45.658;9.272;2022-11-20T17:24:35;13.32;;;9.43;;
41167;SDS011;26906;45.658;9.272;2022-11-20T17:27:01;13.60;;;9.32;;
41167;SDS011;26906;45.658;9.272;2022-11-20T17:29:27;14.27;;;9.75;;
41167;SDS011;26906;45.658;9.272;2022-11-20T17:31:52;13.75;;;10.65;;
41167;SDS011;26906;45.658;9.272;2022-11-20T17:34:21;16.83;;;11.15;;
41167;SDS011;26906;45.658;9.272;2022-11-20T17:36:47;17.92;;;13.20;;
41167;SDS011;26906;45.658;9.272;2022-11-20T17:39:13;12.10;;;8.80;;
41167;SDS011;26906;45.658;9.272;2022-11-20T17:41:40;12.05;;;8.85;;
41167;SDS011;26906;45.658;9.272;2022-11-20T17:44:08;10.25;;;8.07;;
41167;SDS011;26906;45.658;9.272;2022-11-20T17:46:34;13.60;;;8.85;;
41167;SDS011;26906;45.658;9.272;2022-11-20T17:49:01;11.60;;;9.10;;
41167;SDS011;26906;45.658;9.272;2022-11-20T17:51:28;14.20;;;8.13;;
41167;SDS011;26906;45.658;9.272;2022-11-20T17:53:56;11.90;;;8.38;;
41167;SDS011;26906;45.658;9.272;2022-11-20T17:56:26;13.20;;;8.75;;
41167;SDS011;26906;45.658;9.272;2022-11-20T17:59:14;12.93;;;8.95;;
41167;SDS011;26906;45.658;9.272;2022-11-20T18:01:40;14.30;;;9.30;;
41167;SDS011;26906;45.658;9.272;2022-11-20T18:04:07;15.77;;;11.55;;
41167;SDS011;26906;45.658;9.272;2022-11-20T18:06:33;18.52;;;13.50;;
41167;SDS011;26906;45.658;9.272;2022-11-20T18:08:59;31.80;;;25.05;;
41167;SDS011;26906;45.658;9.272;2022-11-20T18:11:27;49.15;;;38.00;;
41167;SDS011;26906;45.658;9.272;2022-11-20T18:13:55;34.95;;;25.02;;
41167;SDS011;26906;45.658;9.272;2022-11-20T18:16:48;30.58;;;22.33;;
41167;SDS011;26906;45.658;9.272;2022-11-20T18:19:16;22.13;;;17.10;;
41167;SDS011;26906;45.658;9.272;2022-11-20T18:21:44;19.42;;;15.27;;
41167;SDS011;26906;45.658;9.272;2022-11-20T18:24:09;18.23;;;13.60;;
41167;SDS011;26906;45.658;9.272;2022-11-20T18:26:35;24.13;;;15.57;;
41167;SDS011;26906;45.658;9.272;2022-11-20T18:29:03;21.20;;;14.40;;
41167;SDS011;26906;45.658;9.272;2022-11-20T18:31:29;26.33;;;17.90;;
41167;SDS011;26906;45.658;9.272;2022-11-20T18:33:58;22.55;;;16.88;;
41167;SDS011;26906;45.658;9.272;2022-11-20T18:36:25;24.20;;;15.70;;
41167;SDS011;26906;45.658;9.272;2022-11-20T18:38:53;19.30;;;13.90;;
41167;SDS011;26906;45.658;9.272;2022-11-20T18:41:22;23.23;;;13.63;;
41167;SDS011;26906;45.658;9.272;2022-11-20T18:44:15;21.52;;;15.13;;
41167;SDS011;26906;45.658;9.272;2022-11-20T18:47:02;20.43;;;15.30;;
41167;SDS011;26906;45.658;9.272;2022-11-20T18:49:28;23.83;;;16.70;;
41167;SDS011;26906;45.658;9.272;2022-11-20T18:51:54;25.48;;;17.98;;
41167;SDS011;26906;45.658;9.272;2022-11-20T18:54:19;26.95;;;15.77;;
41167;SDS011;26906;45.658;9.272;2022-11-20T18:56:45;23.92;;;16.45;;
41167;SDS011;26906;45.658;9.272;2022-11-20T18:59:11;20.88;;;15.10;;
41167;SDS011;26906;45.658;9.272;2022-11-20T19:01:37;24.83;;;15.95;;
41167;SDS011;26906;45.658;9.272;2022-11-20T19:04:07;20.40;;;15.18;;
41167;SDS011;26906;45.658;9.272;2022-11-20T19:06:37;21.70;;;16.27;;
41167;SDS011;26906;45.658;9.272;2022-11-20T19:09:05;22.83;;;16.90;;
41167;SDS011;26906;45.658;9.272;2022-11-20T19:11:36;23.67;;;16.60;;
41167;SDS011;26906;45.658;9.272;2022-11-20T19:14:03;23.70;;;17.20;;
41167;SDS011;26906;45.658;9.272;2022-11-20T19:16:29;21.77;;;16.65;;
41167;SDS011;26906;45.658;9.272;2022-11-20T19:18:55;27.23;;;20.00;;
41167;SDS011;26906;45.658;9.272;2022-11-20T19:21:23;62.80;;;43.05;;
41167;SDS011;26906;45.658;9.272;2022-11-20T19:23:50;32.35;;;23.45;;
41167;SDS011;26906;45.658;9.272;2022-11-20T19:26:18;34.22;;;27.02;;
41167;SDS011;26906;45.658;9.272;2022-11-20T19:28:44;36.88;;;31.58;;
41167;SDS011;26906;45.658;9.272;2022-11-20T19:31:14;26.60;;;21.98;;
41167;SDS011;26906;45.658;9.272;2022-11-20T19:33:44;19.27;;;15.02;;
41167;SDS011;26906;45.658;9.272;2022-11-20T19:36:12;14.40;;;11.60;;
41167;SDS011;26906;45.658;9.272;2022-11-20T19:38:42;13.23;;;10.65;;
41167;SDS011;26906;45.658;9.272;2022-11-20T19:41:11;13.90;;;10.23;;
41167;SDS011;26906;45.658;9.272;2022-11-20T19:43:37;14.65;;;10.80;;
41167;SDS011;26906;45.658;9.272;2022-11-20T19:46:04;12.48;;;9.75;;
41167;SDS011;26906;45.658;9.272;2022-11-20T19:48:34;15.95;;;11.35;;
41167;SDS011;26906;45.658;9.272;2022-11-20T19:51:35;20.63;;;16.38;;
41167;SDS011;26906;45.658;9.272;2022-11-20T19:53:55;19.30;;;15.10;;
41167;SDS011;26906;45.658;9.272;2022-11-20T19:56:22;20.15;;;15.18;;
41167;SDS011;26906;45.658;9.272;2022-11-20T19:58:48;22.52;;;16.63;;
41167;SDS011;26906;45.658;9.272;2022-11-20T20:01:16;26.23;;;19.23;;
41167;SDS011;26906;45.658;9.272;2022-11-20T20:03:43;23.75;;;17.15;;
41167;SDS011;26906;45.658;9.272;2022-11-20T20:06:20;15.88;;;12.98;;
41167;SDS011;26906;45.658;9.272;2022-11-20T20:08:53;18.27;;;13.85;;
41167;SDS011;26906;45.658;9.272;2022-11-20T20:11:28;17.67;;;13.68;;
41167;SDS011;26906;45.658;9.272;2022-11-20T20:13:55;20.33;;;14.38;;
41167;SDS011;26906;45.658;9.272;2022-11-20T20:16:24;24.08;;;16.52;;
41167;SDS011;26906;45.658;9.272;2022-11-20T20:18:57;23.00;;;16.63;;
41167;SDS011;26906;45.658;9.272;2022-11-20T20:21:25;27.63;;;19.00;;
41167;SDS011;26906;45.658;9.272;2022-11-20T20:23:54;26.15;;;19.08;;
41167;SDS011;26906;45.658;9.272;2022-11-20T20:26:21;24.58;;;17.63;;
41167;SDS011;26906;45.658;9.272;2022-11-20T20:28:48;26.33;;;18.27;;
41167;SDS011;26906;45.658;9.272;2022-11-20T20:31:15;28.08;;;17.95;;
41167;SDS011;26906;45.658;9.272;2022-11-20T20:33:42;26.33;;;19.33;;
41167;SDS011;26906;45.658;9.272;2022-11-20T20:36:09;25.15;;;19.38;;
41167;SDS011;26906;45.658;9.272;2022-11-20T20:38:36;32.25;;;20.20;;
41167;SDS011;26906;45.658;9.272;2022-11-20T20:41:02;28.42;;;20.42;;
41167;SDS011;26906;45.658;9.272;2022-11-20T20:43:28;31.75;;;21.58;;
41167;SDS011;26906;45.658;9.272;2022-11-20T20:45:54;31.77;;;20.25;;
41167;SDS011;26906;45.658;9.272;2022-11-20T20:48:21;32.47;;;21.67;;
41167;SDS011;26906;45.658;9.272;2022-11-20T20:50:52;34.65;;;23.50;;
41167;SDS011;26906;45.658;9.272;2022-11-20T20:53:22;30.83;;;18.10;;
41167;SDS011;26906;45.658;9.272;2022-11-20T20:55:58;24.85;;;16.45;;
41167;SDS011;26906;45.658;9.272;2022-11-20T20:58:25;24.38;;;17.08;;
